Terminal Aerodrome Forecast
Issued by NWS

Home | Current Version | Previous Version | Text Only | Print | Product List | Glossary On
Versions: 1 2 3 4 5 6 7 8 9 10 11 12 13 14 15 16 17 18
000
FTUS42 KFFC 281126
TAFFTY
TAF
KFTY 281126Z 2812/0112 04005KT P6SM BKN100
     FM281500 08011KT P6SM SCT035 BKN090
     FM010300 08006KT P6SM SCT015 BKN035
     FM010600 08005KT P6SM -RA BKN015
     FM011000 08003KT 4SM -RA OVC005=

USA.gov is the U.S. government's official web portal to all federal, state and local government web resources and services.